createdAt,value
2018-02-10T08:59:01.008Z,46.10
2018-02-10T09:01:30.067Z,48.22
2018-02-10T09:04:05.153Z,49.00
2018-02-10T09:06:38.934Z,48.55
2018-02-10T09:12:24.026Z,46.10
2018-02-10T09:15:09.540Z,45.33
2018-02-10T09:17:42.568Z,50.40
2018-02-10T09:20:30.502Z,46.90
2018-02-10T09:22:58.826Z,46.28
2018-02-10T10:53:35.619Z,38.90
2018-02-10T10:56:04.889Z,40.80
2018-02-10T10:58:33.626Z,41.13
2018-02-10T11:01:03.355Z,39.55
2018-02-10T11:03:31.890Z,39.15
2018-02-10T11:06:00.175Z,37.13
2018-02-10T11:08:28.626Z,40.70
2018-02-10T11:10:58.035Z,41.28
2018-02-10T11:13:28.888Z,39.75
2018-02-10T11:16:01.910Z,40.88
2018-02-10T11:18:32.227Z,39.60
2018-02-10T11:21:02.909Z,38.90
2018-02-10T11:23:31.643Z,40.80
2018-02-10T11:26:04.064Z,39.97
2018-02-10T11:28:33.409Z,42.67
2018-02-10T11:31:01.907Z,39.88
2018-02-10T11:33:36.548Z,42.03
2018-02-10T11:36:05.649Z,40.70
2018-02-10T11:38:34.299Z,42.45
2018-02-10T11:41:02.699Z,41.53
2018-02-10T11:43:31.134Z,40.47
2018-02-10T11:46:00.426Z,39.28
2018-02-10T11:48:28.732Z,40.10
2018-02-10T11:50:56.987Z,39.75
2018-02-10T11:53:25.270Z,39.15
2018-02-10T11:55:53.938Z,39.08
2018-02-10T11:58:23.926Z,37.25
2018-02-10T12:00:56.250Z,38.90
2018-02-10T12:03:26.717Z,38.90
2018-02-10T12:05:55.125Z,39.75
2018-02-10T12:11:26.660Z,36.88
2018-02-10T12:13:56.098Z,34.80
2018-02-10T12:16:26.987Z,35.55
2018-02-10T12:18:55.682Z,35.75
2018-02-10T12:21:40.662Z,35.15
2018-02-10T13:15:08.071Z,30.02
2018-02-10T13:26:54.879Z,28.62
2018-02-10T13:45:18.809Z,31.50
2018-02-10T13:47:47.093Z,29.33
2018-02-10T13:50:15.296Z,30.35
2018-02-10T13:52:43.621Z,28.80
2018-02-10T13:55:11.859Z,27.87
2018-02-10T13:57:40.369Z,28.05
2018-02-10T14:00:10.464Z,28.52
2018-02-10T14:02:41.721Z,26.95
2018-02-10T14:05:10.897Z,29.37
2018-02-10T14:07:40.202Z,25.20
2018-02-10T14:10:08.502Z,25.40
2018-02-10T14:12:37.114Z,26.83
2018-02-10T14:15:06.919Z,27.00
2018-02-10T14:17:35.298Z,23.73
2018-02-10T14:20:04.475Z,25.70
2018-02-10T14:22:33.068Z,23.42
2018-02-10T14:25:01.322Z,24.25
2018-02-10T14:27:30.360Z,25.25
2018-02-10T14:30:04.111Z,22.52
2018-02-10T14:32:33.264Z,24.08
2018-02-10T14:35:08.773Z,22.17
2018-02-10T14:37:37.280Z,23.70
2018-02-10T14:40:05.584Z,22.90
2018-02-10T14:42:33.794Z,20.88
2018-02-10T14:45:02.058Z,23.55
2018-02-10T14:47:31.159Z,21.35
2018-02-10T14:49:59.529Z,21.87
2018-02-10T14:52:32.890Z,20.50
2018-02-10T14:55:02.121Z,20.05
2018-02-10T14:57:30.655Z,20.55
2018-02-10T15:00:06.827Z,22.33
2018-02-10T15:02:37.597Z,21.85
2018-02-10T15:05:05.874Z,21.30
2018-02-10T15:07:35.012Z,23.10
2018-02-10T15:10:03.445Z,20.30
2018-02-10T15:12:31.913Z,20.05
2018-02-10T15:15:00.149Z,20.95
2018-02-10T15:17:29.970Z,23.75
2018-02-10T15:19:59.075Z,21.05
2018-02-10T15:22:29.793Z,21.12
2018-02-10T15:28:17.210Z,21.35
2018-02-10T15:31:03.028Z,18.90
2018-02-10T15:33:50.335Z,20.55
2018-02-10T15:36:18.781Z,20.85
2018-02-10T15:38:56.214Z,21.20
2018-02-10T15:41:29.486Z,20.50
2018-02-10T15:44:01.004Z,21.58
2018-02-10T15:49:27.370Z,20.70
2018-02-10T15:51:57.514Z,22.65
2018-02-10T15:54:27.194Z,20.00
2018-02-10T15:56:56.486Z,23.60
2018-02-10T15:59:26.470Z,21.58
2018-02-10T16:01:54.775Z,23.55
2018-02-10T16:04:27.529Z,24.25
2018-02-10T16:21:14.202Z,19.30
2018-02-10T16:33:06.379Z,21.27
2018-02-10T16:35:34.999Z,20.10
2018-02-10T16:38:03.962Z,19.58
2018-02-10T16:40:32.267Z,19.37
2018-02-10T16:43:00.481Z,20.00
2018-02-10T16:45:28.775Z,20.08
2018-02-10T16:47:57.008Z,20.67
2018-02-10T16:50:25.265Z,22.58
2018-02-10T16:52:53.823Z,22.50
2018-02-10T16:55:22.021Z,22.00
2018-02-10T16:57:50.351Z,22.33
2018-02-10T17:00:18.610Z,21.20
2018-02-10T17:02:46.924Z,23.95
2018-02-10T17:05:15.183Z,21.33
2018-02-10T17:07:43.438Z,21.42
2018-02-10T17:10:12.679Z,22.00
2018-02-10T17:12:40.915Z,22.90
2018-02-10T17:15:10.131Z,24.85
2018-02-10T17:17:38.766Z,23.58
2018-02-10T17:20:08.233Z,24.45
2018-02-10T17:22:36.478Z,23.77
2018-02-10T17:25:04.723Z,24.75
2018-02-10T17:27:33.083Z,23.02
2018-02-10T17:30:01.373Z,25.95
2018-02-10T17:32:30.385Z,26.77
2018-02-10T17:34:58.798Z,24.15
2018-02-10T17:37:27.056Z,26.15
2018-02-10T17:39:55.451Z,27.05
2018-02-10T17:42:23.979Z,25.80
2018-02-10T17:44:52.249Z,28.27
2018-02-10T17:47:20.998Z,27.45
2018-02-10T17:49:50.089Z,28.50
2018-02-10T17:52:19.701Z,28.42
2018-02-10T17:54:48.680Z,32.38
2018-02-10T17:57:16.882Z,28.90
2018-02-10T17:59:45.108Z,28.77
2018-02-10T18:02:13.359Z,27.67
2018-02-10T18:04:41.598Z,28.10
2018-02-10T18:07:09.881Z,28.02
2018-02-10T18:09:38.109Z,28.35
2018-02-10T18:12:06.899Z,29.77
2018-02-10T18:14:35.486Z,29.05
2018-02-10T18:17:04.031Z,29.12
2018-02-10T18:19:32.249Z,30.52
2018-02-10T18:22:00.522Z,30.45
2018-02-10T18:24:28.710Z,30.62
2018-02-10T18:26:57.847Z,31.25
2018-02-10T18:32:00.456Z,31.30
2018-02-10T18:34:29.555Z,29.45
2018-02-10T18:36:58.534Z,31.52
2018-02-10T18:39:27.498Z,30.67
2018-02-10T18:41:55.739Z,29.80
2018-02-10T18:44:23.920Z,32.97
2018-02-10T18:46:52.864Z,31.60
2018-02-10T18:49:21.671Z,29.92
2018-02-10T18:51:49.908Z,32.95
2018-02-10T18:54:18.097Z,32.60
2018-02-10T18:56:46.625Z,34.40
2018-02-10T18:59:14.977Z,33.20
2018-02-10T19:01:43.938Z,33.50
2018-02-10T19:04:12.535Z,35.20
2018-02-10T19:06:40.868Z,32.60
2018-02-10T19:09:09.062Z,34.08
2018-02-10T19:11:37.281Z,32.92
2018-02-10T19:14:05.500Z,33.08
2018-02-10T19:16:33.656Z,30.95
2018-02-10T19:19:02.083Z,32.20
2018-02-10T19:21:30.330Z,31.17
2018-02-10T19:23:58.543Z,32.15
2018-02-10T19:26:28.110Z,32.45
2018-02-10T19:28:57.151Z,31.75
2018-02-10T19:34:39.248Z,30.60
2018-02-10T19:37:14.706Z,32.15
2018-02-10T19:39:42.904Z,30.52
2018-02-10T19:42:11.879Z,28.87
2018-02-10T19:44:40.408Z,30.12
2018-02-10T19:47:08.582Z,31.27
2018-02-10T19:49:36.837Z,29.77
2018-02-10T19:52:05.043Z,29.30
2018-02-10T19:54:33.316Z,27.95
2018-02-10T19:57:01.456Z,29.02
2018-02-10T19:59:30.122Z,29.05
2018-02-10T20:01:59.056Z,27.10
2018-02-10T20:04:27.245Z,31.05
2018-02-10T20:06:55.860Z,28.15
2018-02-10T20:09:24.032Z,29.67
2018-02-10T20:11:52.217Z,29.70
2018-02-10T20:14:20.849Z,28.75
2018-02-10T20:16:48.973Z,29.90
2018-02-10T20:19:17.218Z,27.60
2018-02-10T20:21:45.472Z,32.58
2018-02-10T20:24:13.649Z,32.17
2018-02-10T20:26:49.003Z,31.55
2018-02-10T20:29:20.296Z,31.08
2018-02-10T20:31:49.225Z,33.20
2018-02-10T20:34:39.938Z,32.53
2018-02-10T20:37:20.518Z,32.10
2018-02-10T20:39:52.654Z,31.85
2018-02-10T20:50:15.944Z,29.95
2018-02-10T20:52:44.137Z,32.65
2018-02-10T20:55:12.383Z,31.52
2018-02-10T20:57:40.946Z,32.42
2018-02-10T21:00:09.970Z,32.15
2018-02-10T21:02:38.831Z,32.28
2018-02-10T21:05:08.039Z,32.83
2018-02-10T21:07:36.241Z,33.40
2018-02-10T21:10:04.422Z,32.15
2018-02-10T21:12:32.657Z,32.88
2018-02-10T21:15:00.952Z,31.02
2018-02-10T21:17:29.175Z,31.35
2018-02-10T21:19:57.403Z,30.60
2018-02-10T21:22:25.579Z,31.33
2018-02-10T21:24:53.855Z,31.25
2018-02-10T21:27:22.063Z,31.33
2018-02-10T21:29:50.347Z,29.67
2018-02-10T21:32:18.618Z,29.83
2018-02-10T21:34:47.207Z,31.67
2018-02-10T21:37:15.503Z,31.35
2018-02-10T21:39:45.456Z,30.27
2018-02-10T21:42:13.651Z,30.83
2018-02-10T21:44:41.905Z,31.20
2018-02-10T21:47:10.265Z,28.83
2018-02-10T21:49:38.620Z,30.88
2018-02-10T21:52:06.835Z,30.75
2018-02-10T21:54:35.684Z,30.75
2018-02-10T21:57:05.132Z,31.58
2018-02-10T21:59:33.323Z,31.10
2018-02-10T22:02:01.490Z,30.25
2018-02-10T22:04:29.719Z,30.58
2018-02-10T22:06:58.028Z,31.48
2018-02-10T22:09:26.280Z,30.60
2018-02-10T22:11:54.879Z,31.25
2018-02-10T22:14:23.099Z,31.75
2018-02-10T22:16:51.337Z,30.55
2018-02-10T22:19:19.720Z,29.95
2018-02-10T22:21:48.052Z,29.98
2018-02-10T22:24:16.343Z,30.92
2018-02-10T22:26:44.648Z,30.60
2018-02-10T22:29:12.882Z,29.10
2018-02-10T22:31:41.097Z,32.72
2018-02-10T22:34:09.353Z,30.00
2018-02-10T22:36:37.510Z,31.48
2018-02-10T22:39:05.687Z,29.15
2018-02-10T22:41:34.253Z,28.40
2018-02-10T22:44:03.247Z,29.33
2018-02-10T22:46:31.413Z,29.80
2018-02-10T22:49:00.399Z,29.25
2018-02-10T22:51:29.420Z,29.17
2018-02-10T22:53:57.695Z,29.90
2018-02-10T22:56:25.930Z,28.20
2018-02-10T22:58:54.172Z,27.30
2018-02-10T23:01:22.535Z,26.33
2018-02-10T23:03:50.804Z,27.05
2018-02-10T23:06:19.104Z,27.30
2018-02-10T23:08:47.831Z,26.60
2018-02-10T23:11:17.180Z,27.27
2018-02-10T23:13:45.543Z,26.95
2018-02-10T23:16:13.924Z,25.80
2018-02-10T23:18:42.446Z,26.73
2018-02-10T23:21:10.659Z,24.35
2018-02-10T23:23:39.475Z,25.83
2018-02-10T23:26:08.057Z,24.48
2018-02-10T23:28:36.285Z,24.42
2018-02-10T23:31:05.344Z,25.30
2018-02-10T23:33:33.899Z,24.37
2018-02-10T23:36:02.886Z,27.20
2018-02-10T23:38:31.790Z,25.50
2018-02-10T23:41:01.354Z,26.37
2018-02-10T23:43:30.275Z,26.52
2018-02-10T23:45:58.539Z,26.80
2018-02-10T23:48:26.995Z,24.12
2018-02-10T23:50:56.842Z,27.00
2018-02-10T23:53:25.155Z,26.83
2018-02-10T23:55:53.394Z,25.90
2018-02-10T23:58:21.546Z,25.55
